createdAt,value
2019-03-27T00:01:43.150Z,-1.10
2019-03-27T00:04:16.883Z,-1.20
2019-03-27T00:06:50.641Z,-1.20
2019-03-27T00:09:24.267Z,-1.20
2019-03-27T00:11:57.958Z,-1.20
2019-03-27T00:14:31.674Z,-1.30
2019-03-27T00:17:05.289Z,-1.30
2019-03-27T00:19:38.909Z,-1.30
2019-03-27T00:22:12.513Z,-1.30
2019-03-27T00:24:48.039Z,-1.30
2019-03-27T00:27:21.721Z,-1.30
2019-03-27T00:29:55.573Z,-1.30
2019-03-27T00:32:29.244Z,-1.30
2019-03-27T00:35:03.006Z,-1.40
2019-03-27T00:37:36.800Z,-1.30
2019-03-27T00:40:10.530Z,-1.40
2019-03-27T00:42:44.207Z,-1.40
2019-03-27T00:45:26.538Z,-1.40
2019-03-27T00:47:53.273Z,-1.40
2019-03-27T00:50:26.971Z,-1.40
2019-03-27T00:53:00.598Z,-1.40
2019-03-27T00:55:34.314Z,-1.40
2019-03-27T01:01:45.083Z,-1.50
2019-03-27T01:04:18.781Z,-1.40
2019-03-27T01:06:52.455Z,-1.40
2019-03-27T01:09:26.096Z,-1.40
2019-03-27T01:12:00.129Z,-1.40
2019-03-27T01:18:11.267Z,-1.30
2019-03-27T01:20:44.887Z,-1.30
2019-03-27T01:23:18.607Z,-1.30
2019-03-27T01:25:52.443Z,-1.30
2019-03-27T01:28:26.041Z,-1.30
2019-03-27T01:30:59.952Z,-1.30
2019-03-27T01:33:33.687Z,-1.30
2019-03-27T01:36:07.434Z,-1.30
2019-03-27T01:38:41.021Z,-1.30
2019-03-27T01:41:14.645Z,-1.30
2019-03-27T01:43:48.345Z,-1.30
2019-03-27T01:46:22.057Z,-1.30
2019-03-27T01:48:55.733Z,-1.30
2019-03-27T01:51:29.459Z,-1.30
2019-03-27T01:54:03.235Z,-1.30
2019-03-27T01:56:36.943Z,-1.30
2019-03-27T01:59:10.611Z,-1.40
2019-03-27T02:01:44.230Z,-1.40
2019-03-27T02:04:17.909Z,-1.40
2019-03-27T02:06:51.551Z,-1.40
2019-03-27T02:09:25.238Z,-1.40
2019-03-27T02:11:59.005Z,-1.40
2019-03-27T02:14:32.840Z,-1.40
2019-03-27T02:17:06.387Z,-1.50
2019-03-27T02:19:40.443Z,-1.50
2019-03-27T02:22:14.191Z,-1.50
2019-03-27T02:24:48.037Z,-1.50
2019-03-27T02:27:21.741Z,-1.50
2019-03-27T02:29:55.703Z,-1.50
2019-03-27T02:32:29.298Z,-1.50
2019-03-27T02:35:03.044Z,-1.50
2019-03-27T02:37:36.839Z,-1.50
2019-03-27T02:40:11.080Z,-1.50
2019-03-27T02:42:44.723Z,-1.50
2019-03-27T02:45:18.330Z,-1.50
2019-03-27T02:47:52.011Z,-1.50
2019-03-27T02:50:26.502Z,-1.50
2019-03-27T02:53:00.282Z,-1.50
2019-03-27T02:55:34.132Z,-1.50
2019-03-27T02:58:07.879Z,-1.50
2019-03-27T03:00:41.667Z,-1.50
2019-03-27T03:03:17.726Z,-1.50
2019-03-27T03:05:51.434Z,-1.50
2019-03-27T03:08:25.306Z,-1.50
2019-03-27T03:10:59.145Z,-1.50
2019-03-27T03:17:19.444Z,-1.50
2019-03-27T03:19:53.082Z,-1.50
2019-03-27T03:22:26.735Z,-1.50
2019-03-27T03:25:03.220Z,-1.50
2019-03-27T03:27:38.073Z,-1.50
2019-03-27T03:33:58.182Z,-1.50
2019-03-27T03:36:31.900Z,-1.50
2019-03-27T03:39:06.657Z,-1.50
2019-03-27T03:41:40.406Z,-1.50
2019-03-27T03:44:13.998Z,-1.50
2019-03-27T03:46:59.366Z,-1.50
2019-03-27T03:49:22.965Z,-1.50
2019-03-27T03:51:56.708Z,-1.50
2019-03-27T03:54:30.572Z,-1.50
2019-03-27T03:57:05.189Z,-1.50
2019-03-27T03:59:40.159Z,-1.50
2019-03-27T04:02:15.561Z,-1.50
2019-03-27T04:04:50.206Z,-1.50
2019-03-27T04:07:23.913Z,-1.50
2019-03-27T04:09:57.644Z,-1.50
2019-03-27T04:12:31.420Z,-1.50
2019-03-27T04:15:07.235Z,-1.60
2019-03-27T04:17:40.970Z,-1.60
2019-03-27T04:20:14.930Z,-1.60
2019-03-27T04:22:48.583Z,-1.60
2019-03-27T04:25:22.232Z,-1.60
2019-03-27T04:27:55.954Z,-1.60
2019-03-27T04:30:29.771Z,-1.50
2019-03-27T04:33:03.577Z,-1.50
2019-03-27T04:35:37.289Z,-1.50
2019-03-27T04:38:10.984Z,-1.50
2019-03-27T04:40:44.681Z,-1.50
2019-03-27T04:43:18.412Z,-1.50
2019-03-27T04:45:52.532Z,-1.50
2019-03-27T04:48:26.234Z,-1.50
2019-03-27T04:50:59.902Z,-1.40
2019-03-27T04:53:33.686Z,-1.40
2019-03-27T04:56:07.446Z,-1.30
2019-03-27T04:58:41.191Z,-1.20
2019-03-27T05:01:14.833Z,-1.10
2019-03-27T05:03:48.534Z,-1.00
2019-03-27T05:06:22.171Z,-0.90
2019-03-27T05:08:56.073Z,-0.70
2019-03-27T05:11:29.855Z,-0.60
2019-03-27T05:17:46.081Z,-0.50
2019-03-27T05:20:19.936Z,-0.40
2019-03-27T05:22:53.734Z,-0.30
2019-03-27T05:25:27.518Z,-0.30
2019-03-27T05:28:01.252Z,-0.20
2019-03-27T05:34:21.297Z,-0.10
2019-03-27T05:36:55.059Z,0.10
2019-03-27T05:39:28.840Z,0.10
2019-03-27T05:42:02.556Z,0.20
2019-03-27T05:44:36.208Z,0.30
2019-03-27T05:47:10.546Z,0.40
2019-03-27T05:49:44.172Z,0.40
2019-03-27T05:52:17.767Z,0.50
2019-03-27T05:54:51.537Z,0.60
2019-03-27T05:57:25.216Z,0.70
2019-03-27T05:59:59.164Z,0.80
2019-03-27T06:02:32.799Z,0.80
2019-03-27T06:05:06.776Z,0.80
2019-03-27T06:07:40.394Z,1.00
2019-03-27T06:10:16.349Z,1.20
2019-03-27T06:12:49.614Z,1.30
2019-03-27T06:15:23.402Z,1.50
2019-03-27T06:17:57.078Z,1.70
2019-03-27T06:20:30.936Z,1.90
2019-03-27T06:23:04.743Z,2.10
2019-03-27T06:25:38.542Z,2.20
2019-03-27T06:28:12.205Z,2.40
2019-03-27T06:30:46.012Z,2.60
2019-03-27T06:33:19.694Z,2.90
2019-03-27T06:35:53.402Z,3.20
2019-03-27T06:38:26.980Z,3.20
2019-03-27T06:41:00.938Z,3.40
2019-03-27T06:43:34.581Z,3.60
2019-03-27T06:46:08.316Z,3.80
2019-03-27T06:48:42.087Z,4.00
2019-03-27T06:51:16.137Z,4.30
2019-03-27T06:53:50.046Z,4.60
2019-03-27T06:56:23.700Z,5.60
2019-03-27T06:58:57.451Z,7.70
2019-03-27T07:01:31.052Z,10.10
2019-03-27T07:04:10.681Z,12.00
2019-03-27T07:06:40.705Z,13.60
2019-03-27T07:09:14.439Z,14.50
2019-03-27T07:11:48.158Z,14.50
2019-03-27T07:18:02.520Z,13.40
2019-03-27T07:20:36.318Z,12.60
2019-03-27T07:23:11.646Z,11.30
2019-03-27T07:25:45.358Z,10.60
2019-03-27T07:28:19.234Z,10.00
2019-03-27T07:34:30.108Z,9.00
2019-03-27T07:37:04.030Z,8.20
2019-03-27T07:39:37.838Z,8.20
2019-03-27T07:42:11.774Z,8.30
2019-03-27T07:44:45.376Z,8.40
2019-03-27T07:47:19.262Z,8.20
2019-03-27T07:49:52.950Z,8.00
2019-03-27T07:52:26.594Z,7.60
2019-03-27T07:55:00.430Z,7.50
2019-03-27T07:57:34.147Z,7.40
2019-03-27T08:00:20.220Z,7.50
2019-03-27T08:02:53.901Z,7.60
2019-03-27T08:05:27.886Z,7.70
2019-03-27T08:08:01.981Z,7.80
2019-03-27T08:10:35.580Z,7.60
2019-03-27T08:13:09.243Z,7.70
2019-03-27T08:15:42.994Z,7.70
2019-03-27T08:18:16.697Z,7.90
2019-03-27T08:20:50.552Z,8.10
2019-03-27T08:23:24.206Z,8.20
2019-03-27T08:25:58.089Z,8.00
2019-03-27T08:28:31.829Z,7.80
2019-03-27T08:31:05.664Z,7.70
2019-03-27T08:33:39.676Z,7.70
2019-03-27T08:36:13.443Z,7.60
2019-03-27T08:38:47.122Z,7.60
2019-03-27T08:41:20.774Z,7.70
2019-03-27T08:43:54.671Z,7.70
2019-03-27T08:46:28.332Z,7.70
2019-03-27T08:49:02.023Z,7.60
2019-03-27T08:51:35.669Z,7.70
2019-03-27T08:54:09.412Z,7.70
2019-03-27T08:56:43.286Z,7.60
2019-03-27T08:59:17.081Z,7.70
2019-03-27T09:01:50.736Z,7.80
2019-03-27T09:04:24.521Z,8.00
2019-03-27T09:06:58.569Z,8.10
2019-03-27T09:09:32.269Z,8.20
2019-03-27T09:12:06.013Z,8.20
2019-03-27T09:18:18.235Z,8.30
2019-03-27T09:20:51.931Z,8.30
2019-03-27T09:23:25.620Z,8.10
2019-03-27T09:25:59.395Z,8.10
2019-03-27T09:28:33.101Z,8.10
2019-03-27T09:34:45.343Z,8.20
2019-03-27T09:37:19.226Z,8.20
2019-03-27T09:39:52.824Z,8.20
2019-03-27T09:42:26.608Z,8.30
2019-03-27T09:45:00.382Z,8.30
2019-03-27T09:47:34.901Z,8.50
2019-03-27T09:50:09.549Z,8.40
2019-03-27T09:52:43.226Z,8.50
2019-03-27T09:55:16.877Z,8.50
2019-03-27T09:57:50.574Z,8.30
2019-03-27T10:00:43.923Z,8.30
2019-03-27T10:03:17.651Z,8.50
2019-03-27T10:05:51.276Z,8.70
2019-03-27T10:08:25.191Z,9.00
2019-03-27T10:10:58.904Z,8.90
2019-03-27T10:13:32.509Z,8.90
2019-03-27T10:16:06.304Z,8.80
2019-03-27T10:18:39.994Z,8.70
2019-03-27T10:21:13.659Z,8.80
2019-03-27T10:23:47.368Z,9.00
2019-03-27T10:26:21.107Z,9.00
2019-03-27T10:28:54.734Z,9.10
2019-03-27T10:31:28.477Z,9.10
2019-03-27T10:34:02.432Z,9.10
2019-03-27T10:36:36.085Z,9.00
2019-03-27T10:39:11.018Z,9.10
2019-03-27T10:41:44.755Z,9.20
2019-03-27T10:44:18.423Z,9.30
2019-03-27T10:46:52.131Z,9.40
2019-03-27T10:49:25.802Z,9.40
2019-03-27T10:51:59.813Z,9.40
2019-03-27T10:54:33.919Z,9.50
2019-03-27T10:57:07.801Z,9.60
2019-03-27T10:59:42.123Z,9.60
2019-03-27T11:02:15.893Z,9.80
2019-03-27T11:04:49.626Z,9.80
2019-03-27T11:07:23.320Z,9.80
2019-03-27T11:09:59.503Z,9.90
2019-03-27T11:12:34.753Z,10.00
2019-03-27T11:18:45.431Z,10.00
2019-03-27T11:21:19.187Z,10.10
2019-03-27T11:23:52.845Z,10.10
2019-03-27T11:26:26.560Z,10.20
2019-03-27T11:29:00.297Z,10.00
2019-03-27T11:35:20.227Z,10.20
2019-03-27T11:37:54.025Z,10.20
2019-03-27T11:40:27.767Z,10.20
2019-03-27T11:43:01.541Z,10.10
2019-03-27T11:45:35.280Z,10.00
2019-03-27T11:48:09.147Z,9.90
2019-03-27T11:50:45.089Z,9.90
2019-03-27T11:53:20.411Z,9.80
2019-03-27T11:55:54.115Z,10.00
2019-03-27T11:58:27.846Z,10.00
2019-03-27T12:01:01.507Z,10.00
2019-03-27T12:03:35.254Z,10.20
2019-03-27T12:06:10.106Z,10.50
2019-03-27T12:08:45.789Z,10.60
2019-03-27T12:11:19.227Z,10.70
2019-03-27T12:13:52.911Z,10.80
2019-03-27T12:16:27.004Z,10.80
2019-03-27T12:19:00.647Z,10.80
2019-03-27T12:21:35.781Z,10.80
2019-03-27T12:24:09.592Z,10.80
2019-03-27T12:26:43.577Z,11.00
2019-03-27T12:29:18.274Z,11.10
2019-03-27T12:31:52.112Z,10.90
2019-03-27T12:34:25.788Z,10.80
2019-03-27T12:36:59.573Z,10.70
2019-03-27T12:39:33.195Z,10.50
2019-03-27T12:42:07.058Z,10.40
2019-03-27T12:44:40.728Z,10.30
2019-03-27T12:47:14.528Z,10.30
2019-03-27T12:49:48.306Z,10.20
2019-03-27T12:52:21.987Z,10.10
2019-03-27T12:54:55.738Z,10.20
2019-03-27T12:57:29.306Z,10.30
2019-03-27T13:00:03.354Z,10.30
2019-03-27T13:02:36.943Z,10.20
2019-03-27T13:05:10.882Z,10.00
2019-03-27T13:07:50.272Z,10.00
2019-03-27T13:10:20.334Z,10.00
2019-03-27T13:12:54.015Z,9.90
2019-03-27T13:19:04.618Z,9.70
2019-03-27T13:21:38.446Z,9.40
2019-03-27T13:24:12.163Z,9.50
2019-03-27T13:26:45.944Z,9.40
2019-03-27T13:29:19.724Z,9.50
2019-03-27T13:35:39.634Z,9.50
2019-03-27T13:38:13.335Z,9.40
2019-03-27T13:40:47.070Z,9.40
2019-03-27T13:43:20.894Z,9.30
2019-03-27T13:45:54.562Z,9.20
2019-03-27T13:48:28.290Z,9.20
2019-03-27T13:51:05.311Z,9.30
2019-03-27T13:53:38.960Z,9.40
2019-03-27T13:56:12.695Z,9.30
2019-03-27T13:58:46.427Z,9.30
2019-03-27T14:01:20.129Z,9.20
2019-03-27T14:03:53.760Z,9.10
2019-03-27T14:06:27.598Z,9.20
2019-03-27T14:09:01.682Z,9.20
2019-03-27T14:11:35.376Z,9.20
2019-03-27T14:14:11.443Z,9.40
2019-03-27T14:16:44.318Z,9.50
2019-03-27T14:19:18.084Z,9.60
2019-03-27T14:21:54.993Z,9.70
2019-03-27T14:24:27.164Z,9.60
2019-03-27T14:27:00.842Z,9.50
2019-03-27T14:29:34.560Z,9.40
2019-03-27T14:32:08.161Z,9.50
2019-03-27T14:34:42.201Z,9.50
2019-03-27T14:37:17.198Z,9.40
2019-03-27T14:39:50.969Z,9.30
2019-03-27T14:42:24.671Z,9.30
2019-03-27T14:44:58.548Z,9.20
2019-03-27T14:47:32.154Z,9.10
2019-03-27T14:50:08.247Z,9.10
2019-03-27T14:52:42.010Z,9.10
2019-03-27T14:55:15.756Z,9.00
2019-03-27T14:57:49.493Z,8.90
2019-03-27T15:00:23.170Z,8.90
2019-03-27T15:02:56.764Z,8.80
2019-03-27T15:05:30.474Z,8.60
2019-03-27T15:08:04.499Z,8.60
2019-03-27T15:10:38.212Z,8.60
2019-03-27T15:13:15.190Z,8.50
2019-03-27T15:18:38.999Z,8.40
2019-03-27T15:21:12.875Z,8.30
2019-03-27T15:23:46.455Z,8.30
2019-03-27T15:26:21.579Z,8.20
2019-03-27T15:28:55.314Z,8.20
2019-03-27T15:35:07.233Z,8.20
2019-03-27T15:37:40.893Z,8.10
2019-03-27T15:40:15.173Z,8.10
2019-03-27T15:42:50.275Z,8.10
2019-03-27T15:45:24.118Z,8.00
2019-03-27T15:51:34.776Z,8.00
2019-03-27T15:54:08.500Z,8.00
2019-03-27T15:56:43.157Z,7.90
2019-03-27T15:59:16.919Z,7.90
2019-03-27T16:01:50.659Z,7.90
2019-03-27T16:04:24.429Z,7.90
2019-03-27T16:06:58.122Z,7.80
2019-03-27T16:09:31.802Z,7.90
2019-03-27T16:12:05.668Z,7.90
2019-03-27T16:14:39.652Z,7.90
2019-03-27T16:17:14.151Z,7.90
2019-03-27T16:19:48.050Z,7.90
2019-03-27T16:22:21.808Z,7.80
2019-03-27T16:24:55.461Z,7.80
2019-03-27T16:27:29.844Z,7.70
2019-03-27T16:30:07.836Z,7.60
2019-03-27T16:32:41.567Z,7.40
2019-03-27T16:35:15.333Z,7.40
2019-03-27T16:37:49.590Z,7.40
2019-03-27T16:40:47.767Z,7.40
2019-03-27T16:43:21.641Z,7.40
2019-03-27T16:45:57.121Z,7.40
2019-03-27T16:48:31.115Z,7.30
2019-03-27T16:51:04.859Z,7.30
2019-03-27T16:53:38.664Z,7.30
2019-03-27T16:56:12.521Z,7.20
2019-03-27T16:58:46.276Z,7.20
2019-03-27T17:04:56.987Z,7.10
2019-03-27T17:07:30.918Z,7.10
2019-03-27T17:10:06.267Z,7.10
2019-03-27T17:12:40.051Z,7.10
2019-03-27T17:15:20.839Z,7.10
2019-03-27T17:21:31.596Z,7.10
2019-03-27T17:24:05.428Z,7.10
2019-03-27T17:26:39.220Z,7.10
2019-03-27T17:29:12.904Z,7.10
2019-03-27T17:31:46.669Z,7.10
2019-03-27T17:34:20.412Z,7.10
2019-03-27T17:36:54.087Z,7.10
2019-03-27T17:39:27.743Z,7.10
2019-03-27T17:42:02.033Z,7.10
2019-03-27T17:44:35.713Z,7.10
2019-03-27T17:47:09.524Z,7.20
2019-03-27T17:49:43.270Z,7.10
2019-03-27T17:52:17.183Z,7.20
2019-03-27T17:54:50.954Z,7.10
2019-03-27T17:57:25.493Z,7.10
2019-03-27T17:59:59.193Z,7.10
2019-03-27T18:02:34.432Z,7.10
2019-03-27T18:05:10.335Z,7.00
2019-03-27T18:07:44.276Z,6.90
2019-03-27T18:10:17.973Z,6.90
2019-03-27T18:12:53.365Z,6.80
2019-03-27T18:15:27.511Z,6.80
2019-03-27T18:18:01.239Z,6.80
2019-03-27T18:20:35.062Z,6.70
2019-03-27T18:23:08.794Z,6.70
2019-03-27T18:25:42.641Z,6.60
2019-03-27T18:28:16.471Z,6.60
2019-03-27T18:30:50.165Z,6.60
2019-03-27T18:33:26.548Z,6.60
2019-03-27T18:36:00.159Z,6.50
2019-03-27T18:38:34.395Z,6.50
2019-03-27T18:41:08.077Z,6.50
2019-03-27T18:43:41.821Z,6.50
2019-03-27T18:46:15.585Z,6.40
2019-03-27T18:48:49.410Z,6.40
2019-03-27T18:51:23.329Z,6.30
2019-03-27T18:53:59.810Z,6.30
2019-03-27T18:56:32.313Z,6.30
2019-03-27T18:59:06.112Z,6.30
2019-03-27T19:05:25.980Z,6.20
2019-03-27T19:07:59.542Z,6.10
2019-03-27T19:10:34.413Z,6.10
2019-03-27T19:13:08.939Z,6.10
2019-03-27T19:15:42.779Z,6.00
2019-03-27T19:22:03.055Z,5.90
2019-03-27T19:24:36.968Z,5.90
2019-03-27T19:27:10.828Z,5.90
2019-03-27T19:29:45.134Z,5.90
2019-03-27T19:32:18.887Z,5.90
2019-03-27T19:34:54.017Z,5.90
2019-03-27T19:37:27.805Z,5.90
2019-03-27T19:40:01.767Z,5.90
2019-03-27T19:42:35.527Z,5.90
2019-03-27T19:45:11.757Z,5.90
2019-03-27T19:47:45.925Z,5.90
2019-03-27T19:50:19.833Z,5.90
2019-03-27T19:52:53.539Z,5.90
2019-03-27T19:55:27.189Z,5.90
2019-03-27T19:58:00.899Z,5.90
2019-03-27T20:00:35.329Z,5.90
2019-03-27T20:03:09.177Z,5.90
2019-03-27T20:05:42.819Z,5.90
2019-03-27T20:08:16.417Z,5.90
2019-03-27T20:10:50.188Z,5.90
2019-03-27T20:13:23.740Z,6.00
2019-03-27T20:15:57.379Z,6.00
2019-03-27T20:18:31.081Z,6.00
2019-03-27T20:21:04.887Z,6.00
2019-03-27T20:23:38.612Z,6.10
2019-03-27T20:26:12.363Z,6.10
2019-03-27T20:28:46.135Z,6.20
2019-03-27T20:31:20.075Z,6.10
2019-03-27T20:33:54.012Z,6.10
2019-03-27T20:36:27.865Z,6.10
2019-03-27T20:39:04.317Z,6.10
2019-03-27T20:41:38.375Z,6.10
2019-03-27T20:44:12.121Z,6.10
2019-03-27T20:46:46.056Z,6.20
2019-03-27T20:49:19.728Z,6.20
2019-03-27T20:51:54.917Z,6.20
2019-03-27T20:54:28.813Z,6.30
2019-03-27T20:57:02.541Z,6.30
2019-03-27T20:59:36.209Z,6.30
2019-03-27T21:05:47.941Z,6.30
2019-03-27T21:08:21.986Z,6.30
2019-03-27T21:10:55.730Z,6.30
2019-03-27T21:13:32.513Z,6.40
2019-03-27T21:16:06.729Z,6.40
2019-03-27T21:22:26.473Z,6.30
2019-03-27T21:25:08.481Z,6.30
2019-03-27T21:27:36.194Z,6.30
2019-03-27T21:30:11.389Z,6.30
2019-03-27T21:32:45.320Z,6.30
2019-03-27T21:35:19.057Z,6.30
2019-03-27T21:37:52.995Z,6.30
2019-03-27T21:40:26.822Z,6.30
2019-03-27T21:43:00.487Z,6.30
2019-03-27T21:45:34.177Z,6.30
2019-03-27T21:48:08.158Z,6.30
2019-03-27T21:50:41.824Z,6.40
2019-03-27T21:53:15.563Z,6.40
2019-03-27T21:55:49.329Z,6.40
2019-03-27T21:58:23.008Z,6.40
2019-03-27T22:00:56.722Z,6.50
2019-03-27T22:03:30.411Z,6.50
2019-03-27T22:06:04.973Z,6.50
2019-03-27T22:08:38.834Z,6.50
2019-03-27T22:11:12.551Z,6.50
2019-03-27T22:13:48.028Z,6.50
2019-03-27T22:16:21.762Z,6.50
2019-03-27T22:18:55.575Z,6.50
2019-03-27T22:21:30.926Z,6.50
2019-03-27T22:24:05.167Z,6.50
2019-03-27T22:26:39.173Z,6.50
2019-03-27T22:29:12.958Z,6.50
2019-03-27T22:31:46.648Z,6.50
2019-03-27T22:34:20.361Z,6.50
2019-03-27T22:36:54.163Z,6.50
2019-03-27T22:39:28.141Z,6.50
2019-03-27T22:42:02.105Z,6.50
2019-03-27T22:44:36.814Z,6.50
2019-03-27T22:47:10.469Z,6.50
2019-03-27T22:49:44.265Z,6.50
2019-03-27T22:52:17.989Z,6.50
2019-03-27T22:54:51.735Z,6.50
2019-03-27T22:57:25.389Z,6.50
2019-03-27T22:59:59.479Z,6.50
2019-03-27T23:06:10.372Z,6.50
2019-03-27T23:08:44.037Z,6.50
2019-03-27T23:11:17.780Z,6.40
2019-03-27T23:13:51.505Z,6.50
2019-03-27T23:16:27.465Z,6.50
2019-03-27T23:22:41.239Z,6.40
2019-03-27T23:25:14.992Z,6.40
2019-03-27T23:27:48.804Z,6.50
2019-03-27T23:30:23.039Z,6.50
2019-03-27T23:32:56.745Z,6.40
2019-03-27T23:35:30.416Z,6.50
2019-03-27T23:38:04.456Z,6.40
2019-03-27T23:40:38.250Z,6.50
2019-03-27T23:43:12.270Z,6.40
2019-03-27T23:45:47.933Z,6.40
2019-03-27T23:48:22.203Z,6.40
2019-03-27T23:50:55.819Z,6.40
2019-03-27T23:53:29.618Z,6.40
2019-03-27T23:56:16.087Z,6.40
2019-03-27T23:58:40.093Z,6.40
